Time;durP1;ratioP1;P1;durP2;ratioP2;P2;SDS_P1;SDS_P2;PMS_P1;PMS_P2;Temp;Humidity;BMP_temperature;BMP_pressure;BME280_temperature;BME280_humidity;BME280_pressure;Samples;Min_cycle;Max_cycle;Signal;HPM_P1;HPM_P2
2023/05/08 00:02:20;;;;;;;1.83;1.47;;;21.90;66.00;;;;;;5071371;28;20220;-44
2023/05/08 00:05:04;;;;;;;1.13;1.03;;;21.90;66.00;;;;;;5062697;28;20205;-43
2023/05/08 00:07:43;;;;;;;2.17;1.00;;;21.80;66.00;;;;;;5072909;28;20266;-43
2023/05/08 00:10:13;;;;;;;1.37;1.03;;;21.80;66.00;;;;;;5058999;28;20655;-43
2023/05/08 00:12:44;;;;;;;1.40;1.30;;;21.80;66.00;;;;;;5066973;28;20194;-44
2023/05/08 00:15:12;;;;;;;2.17;1.23;;;21.80;66.00;;;;;;5061801;28;20526;-43
2023/05/08 00:17:42;;;;;;;1.17;1.00;;;21.80;66.60;;;;;;5051741;28;20197;-43
2023/05/08 00:20:12;;;;;;;1.40;1.30;;;21.80;66.00;;;;;;5065398;28;20264;-43
2023/05/08 00:22:44;;;;;;;1.70;1.47;;;21.80;66.10;;;;;;5065611;28;20201;-44
2023/05/08 00:25:14;;;;;;;3.60;1.30;;;21.80;66.10;;;;;;5048929;28;20268;-43
2023/05/08 00:27:41;;;;;;;1.87;1.30;;;21.80;66.00;;;;;;5074259;28;20275;-43
2023/05/08 00:30:16;;;;;;;1.50;1.20;;;21.70;66.00;;;;;;5061612;28;20212;-43
2023/05/08 00:32:47;;;;;;;1.33;1.23;;;21.70;66.00;;;;;;5074091;28;20186;-43
2023/05/08 00:35:18;;;;;;;3.83;1.50;;;21.70;66.00;;;;;;5071692;28;20277;-44
2023/05/08 00:37:48;;;;;;;2.60;1.70;;;21.70;66.10;;;;;;5067144;28;20267;-43
2023/05/08 00:40:18;;;;;;;1.63;1.40;;;21.70;66.10;;;;;;5073332;28;20251;-43
2023/05/08 00:42:49;;;;;;;1.73;1.30;;;21.70;66.10;;;;;;5046035;28;20183;-43
2023/05/08 00:45:19;;;;;;;1.10;1.00;;;21.70;66.70;;;;;;5071999;28;20217;-43
2023/05/08 00:47:50;;;;;;;1.30;1.20;;;21.70;66.10;;;;;;5073202;28;20678;-43
2023/05/08 00:50:22;;;;;;;2.07;1.20;;;21.70;66.00;;;;;;5022430;28;20233;-43
2023/05/08 00:52:54;;;;;;;1.20;1.10;;;21.70;66.10;;;;;;5059533;28;20588;-43
2023/05/08 00:55:24;;;;;;;1.30;1.20;;;21.70;66.10;;;;;;5048832;28;20527;-43
2023/05/08 00:57:56;;;;;;;1.63;1.50;;;21.60;66.00;;;;;;5037710;28;20195;-44
2023/05/08 01:00:31;;;;;;;1.40;1.20;;;21.60;66.10;;;;;;5070324;28;20194;-44
2023/05/08 01:03:01;;;;;;;1.77;1.20;;;21.60;66.00;;;;;;5054372;28;20220;-43
2023/05/08 01:05:34;;;;;;;2.33;1.53;;;21.60;66.10;;;;;;5055475;28;20205;-43
2023/05/08 01:08:03;;;;;;;1.47;1.37;;;21.60;66.10;;;;;;5033254;28;20197;-43
2023/05/08 01:11:12;;;;;;;3.00;1.70;;;21.60;66.10;;;;;;5068490;28;20217;-43
2023/05/08 01:13:59;;;;;;;2.07;1.30;;;21.60;66.00;;;;;;5058036;28;20690;-43
2023/05/08 01:16:58;;;;;;;1.70;1.47;;;21.60;66.10;;;;;;5073331;28;20534;-43
2023/05/08 01:19:54;;;;;;;1.37;1.27;;;21.60;66.00;;;;;;5065621;28;20205;-44
2023/05/08 01:22:38;;;;;;;1.30;1.20;;;21.50;66.00;;;;;;5064706;28;20241;-43
2023/05/08 01:25:49;;;;;;;1.87;1.50;;;21.50;66.00;;;;;;5073010;28;20547;-43
2023/05/08 01:29:05;;;;;;;2.97;1.60;;;21.50;65.90;;;;;;5008006;28;20769;-44
2023/05/08 01:32:25;;;;;;;1.83;1.60;;;21.60;65.90;;;;;;4930495;29;20795;-43
2023/05/08 01:35:23;;;;;;;1.50;1.40;;;21.50;65.90;;;;;;4936908;28;20221;-43
2023/05/08 01:38:21;;;;;;;1.50;1.40;;;21.50;65.90;;;;;;4937006;29;20214;-43
2023/05/08 01:41:14;;;;;;;1.40;1.30;;;21.50;66.00;;;;;;4927541;29;20806;-43
2023/05/08 01:44:18;;;;;;;1.33;1.20;;;21.50;66.10;;;;;;5000403;28;20203;-44
2023/05/08 01:46:50;;;;;;;2.03;1.20;;;21.50;66.00;;;;;;4999025;28;20202;-44
2023/05/08 01:49:36;;;;;;;1.53;1.43;;;21.50;66.10;;;;;;4986427;28;20291;-44
2023/05/08 01:52:34;;;;;;;1.73;1.50;;;21.50;66.00;;;;;;5005458;28;20229;-43
2023/05/08 01:55:16;;;;;;;1.50;1.30;;;21.50;65.90;;;;;;5002308;28;20555;-44
2023/05/08 01:57:49;;;;;;;1.40;1.30;;;21.40;65.90;;;;;;5000341;28;20246;-44
2023/05/08 02:00:22;;;;;;;1.20;1.20;;;21.50;66.00;;;;;;5057397;28;20263;-44
2023/05/08 02:02:56;;;;;;;2.07;1.50;;;21.40;65.90;;;;;;5067584;28;20261;-43
2023/05/08 02:05:29;;;;;;;1.50;1.40;;;21.50;65.90;;;;;;5043781;28;20205;-43
2023/05/08 02:08:00;;;;;;;2.03;1.30;;;21.50;65.90;;;;;;5070740;28;20194;-43
2023/05/08 02:10:33;;;;;;;1.50;1.40;;;21.50;65.90;;;;;;5046437;28;20271;-43
2023/05/08 02:13:02;;;;;;;1.30;1.20;;;21.50;65.90;;;;;;5052560;28;20210;-43
2023/05/08 02:15:38;;;;;;;1.47;1.23;;;21.50;65.90;;;;;;5034212;28;20194;-44
2023/05/08 02:18:13;;;;;;;1.20;1.10;;;21.40;65.80;;;;;;5074576;28;20188;-43
2023/05/08 02:20:43;;;;;;;1.40;1.30;;;21.50;65.80;;;;;;5052559;28;20194;-43
2023/05/08 02:23:16;;;;;;;1.50;1.40;;;21.40;65.80;;;;;;5066696;28;20636;-43
2023/05/08 02:25:45;;;;;;;2.17;1.70;;;21.40;65.80;;;;;;5055782;28;20210;-43
2023/05/08 02:28:16;;;;;;;1.27;1.17;;;21.40;65.80;;;;;;5060849;28;20209;-43
2023/05/08 02:30:51;;;;;;;1.53;1.43;;;21.40;65.80;;;;;;5042323;28;20194;-43
2023/05/08 02:33:23;;;;;;;1.90;1.27;;;21.40;65.70;;;;;;5052239;28;20201;-43
2023/05/08 02:35:55;;;;;;;2.33;1.37;;;21.40;65.80;;;;;;5039787;28;20282;-43
2023/05/08 02:38:29;;;;;;;1.40;1.30;;;21.40;65.80;;;;;;5063547;28;20681;-43
2023/05/08 02:41:17;;;;;;;2.20;1.27;;;21.40;65.80;;;;;;5047169;28;20213;-43
2023/05/08 02:43:52;;;;;;;1.30;1.20;;;21.40;65.70;;;;;;5068754;28;20201;-43
2023/05/08 02:46:36;;;;;;;1.40;1.30;;;21.40;65.80;;;;;;5063332;28;20223;-43
2023/05/08 02:49:38;;;;;;;2.03;1.10;;;21.40;65.80;;;;;;5069818;28;20609;-43
2023/05/08 02:52:32;;;;;;;1.40;1.27;;;21.40;65.80;;;;;;5037928;28;20220;-43
2023/05/08 02:55:59;;;;;;;1.20;1.10;;;21.40;65.80;;;;;;5068772;28;20310;-43
2023/05/08 02:58:43;;;;;;;1.50;1.40;;;21.40;65.80;;;;;;5022085;28;20221;-43
2023/05/08 03:01:29;;;;;;;1.20;1.10;;;21.30;65.80;;;;;;5058682;28;20296;-43
2023/05/08 03:04:07;;;;;;;1.20;1.20;;;21.30;65.80;;;;;;5069735;28;20197;-43
2023/05/08 03:06:46;;;;;;;1.37;1.20;;;21.30;65.80;;;;;;5062990;28;20576;-43
2023/05/08 03:09:41;;;;;;;1.87;1.40;;;21.30;65.80;;;;;;5050792;28;20202;-43
2023/05/08 03:12:17;;;;;;;1.80;1.47;;;21.30;66.40;;;;;;5058290;28;20228;-43
2023/05/08 03:14:58;;;;;;;1.80;1.40;;;21.30;65.80;;;;;;5034979;28;20215;-43
2023/05/08 03:17:32;;;;;;;1.23;1.13;;;21.30;65.80;;;;;;5051901;28;20213;-44
2023/05/08 03:20:11;;;;;;;1.30;1.10;;;21.30;65.70;;;;;;5066211;28;20200;-43
2023/05/08 03:22:47;;;;;;;1.80;1.10;;;21.30;65.80;;;;;;5048963;28;20229;-44
2023/05/08 03:25:22;;;;;;;1.30;1.20;;;21.30;65.70;;;;;;5046404;28;20202;-43
2023/05/08 03:27:52;;;;;;;3.30;1.50;;;21.30;65.70;;;;;;5065848;28;20188;-44
2023/05/08 03:30:22;;;;;;;1.40;1.30;;;21.30;65.60;;;;;;5050994;28;20244;-43
2023/05/08 03:32:52;;;;;;;1.23;1.10;;;21.30;65.60;;;;;;5031045;28;20185;-43
2023/05/08 03:35:27;;;;;;;1.20;1.10;;;21.30;65.60;;;;;;5039819;28;20264;-43
2023/05/08 03:37:58;;;;;;;1.20;1.10;;;21.30;65.60;;;;;;5063107;28;20209;-43
2023/05/08 03:40:35;;;;;;;1.57;1.40;;;21.40;65.70;;;;;;5065330;28;20205;-43
2023/05/08 03:43:07;;;;;;;1.43;1.20;;;21.30;65.60;;;;;;5068150;28;20210;-43
2023/05/08 03:45:42;;;;;;;1.37;1.27;;;21.30;65.60;;;;;;5051126;28;20186;-43
2023/05/08 03:48:23;;;;;;;1.40;1.30;;;21.30;65.60;;;;;;5063992;28;20216;-43
2023/05/08 03:50:54;;;;;;;1.30;1.20;;;21.30;65.50;;;;;;5052928;28;20578;-43
2023/05/08 03:53:32;;;;;;;1.40;1.30;;;21.30;65.50;;;;;;5061705;28;20193;-43
2023/05/08 03:56:12;;;;;;;1.60;1.33;;;21.30;65.50;;;;;;5074993;28;20292;-43
2023/05/08 03:58:56;;;;;;;1.60;1.50;;;21.30;65.50;;;;;;5061722;28;20220;-43
2023/05/08 04:01:59;;;;;;;1.63;1.40;;;21.30;65.50;;;;;;5079177;28;20284;-43
2023/05/08 04:05:19;;;;;;;1.37;1.20;;;21.30;65.40;;;;;;5067763;28;20208;-43
2023/05/08 04:08:25;;;;;;;1.50;1.37;;;21.30;65.40;;;;;;5054158;28;20674;-43
2023/05/08 04:11:10;;;;;;;2.07;1.40;;;21.30;65.40;;;;;;5062123;28;20206;-43
2023/05/08 04:14:06;;;;;;;1.73;1.63;;;21.30;65.40;;;;;;5067641;28;20198;-43
2023/05/08 04:16:50;;;;;;;1.73;1.60;;;21.30;65.50;;;;;;5071870;28;20625;-44
2023/05/08 04:19:30;;;;;;;1.60;1.50;;;21.30;65.50;;;;;;5059784;28;20196;-44
2023/05/08 04:22:09;;;;;;;1.40;1.30;;;21.30;65.40;;;;;;5047179;28;20212;-43
2023/05/08 04:24:46;;;;;;;2.77;1.67;;;21.30;65.50;;;;;;5067247;28;20209;-43
2023/05/08 04:27:17;;;;;;;1.50;1.30;;;21.30;65.50;;;;;;5061098;28;20223;-43
2023/05/08 04:29:52;;;;;;;1.47;1.37;;;21.30;65.50;;;;;;5069431;28;20218;-43
2023/05/08 04:32:24;;;;;;;1.20;1.10;;;21.30;65.40;;;;;;5049906;28;20266;-43
2023/05/08 04:34:55;;;;;;;1.60;1.50;;;21.30;65.40;;;;;;5050010;28;20235;-44
2023/05/08 04:37:30;;;;;;;1.53;1.10;;;21.30;66.00;;;;;;5068651;28;20209;-43
2023/05/08 04:40:17;;;;;;;1.33;1.23;;;21.30;65.30;;;;;;5075274;28;20227;-43
2023/05/08 04:42:49;;;;;;;1.83;1.40;;;21.30;65.40;;;;;;5081138;28;20217;-44
2023/05/08 04:45:19;;;;;;;2.47;1.10;;;21.30;65.40;;;;;;5079741;28;20198;-44
2023/05/08 04:47:48;;;;;;;2.60;1.57;;;21.20;65.40;;;;;;5078782;28;20209;-43
2023/05/08 04:50:19;;;;;;;1.47;1.37;;;21.30;65.40;;;;;;5082299;28;20202;-43
2023/05/08 04:52:49;;;;;;;2.10;1.57;;;21.30;65.40;;;;;;5057584;28;20629;-43
2023/05/08 04:55:19;;;;;;;1.80;1.37;;;21.20;65.30;;;;;;5050209;28;20241;-42
2023/05/08 04:57:48;;;;;;;2.10;1.87;;;21.30;65.40;;;;;;5080661;28;20209;-43
2023/05/08 05:00:18;;;;;;;2.30;1.47;;;21.20;65.40;;;;;;5054872;28;20210;-42
2023/05/08 05:02:48;;;;;;;2.03;1.63;;;21.20;65.40;;;;;;5075728;28;20210;-43
2023/05/08 05:05:18;;;;;;;1.70;1.60;;;21.20;65.40;;;;;;5058910;28;20213;-43
2023/05/08 05:07:50;;;;;;;1.57;1.47;;;21.30;65.40;;;;;;5081580;28;20623;-42
2023/05/08 05:10:18;;;;;;;1.40;1.30;;;21.20;65.40;;;;;;5075458;28;20239;-42
2023/05/08 05:12:49;;;;;;;1.80;1.70;;;21.20;65.40;;;;;;5057898;28;20201;-42
2023/05/08 05:15:19;;;;;;;1.77;1.67;;;21.20;65.30;;;;;;5065018;28;20211;-42
2023/05/08 05:17:47;;;;;;;1.90;1.73;;;21.20;65.30;;;;;;5073907;28;20220;-43
2023/05/08 05:20:16;;;;;;;2.27;1.87;;;21.30;65.30;;;;;;5067210;28;20201;-42
2023/05/08 05:22:45;;;;;;;2.73;2.07;;;21.20;65.20;;;;;;5053865;28;20275;-42
2023/05/08 05:25:14;;;;;;;2.20;2.07;;;21.20;65.20;;;;;;5070859;28;20700;-42
2023/05/08 05:27:44;;;;;;;2.80;1.90;;;21.20;65.20;;;;;;5072959;28;20213;-43
2023/05/08 05:30:24;;;;;;;1.80;1.70;;;21.20;65.20;;;;;;5070928;28;20239;-42
2023/05/08 05:32:55;;;;;;;1.90;1.80;;;21.20;65.20;;;;;;5071466;28;20193;-43
2023/05/08 05:35:26;;;;;;;2.37;2.17;;;21.20;65.20;;;;;;5068083;28;20204;-42
2023/05/08 05:37:54;;;;;;;2.33;2.10;;;21.20;65.20;;;;;;5064437;28;20197;-42
2023/05/08 05:40:25;;;;;;;3.63;2.20;;;21.20;65.10;;;;;;5070777;28;20182;-42
2023/05/08 05:42:58;;;;;;;2.87;2.00;;;21.20;65.10;;;;;;5070594;28;20388;-42
2023/05/08 05:45:31;;;;;;;2.10;1.97;;;21.20;65.10;;;;;;5051036;28;20630;-42
2023/05/08 05:48:01;;;;;;;3.60;2.30;;;21.20;65.10;;;;;;5061905;28;20216;-42
2023/05/08 05:50:30;;;;;;;5.77;2.50;;;21.20;65.10;;;;;;5073114;28;20220;-42
2023/05/08 05:53:02;;;;;;;2.87;2.03;;;21.20;65.10;;;;;;5074398;28;20708;-42
2023/05/08 05:55:31;;;;;;;2.30;2.10;;;21.20;65.00;;;;;;5070620;28;20566;-42
2023/05/08 05:58:09;;;;;;;3.60;2.60;;;21.20;65.00;;;;;;5061248;28;20585;-43
2023/05/08 06:00:41;;;;;;;2.80;2.47;;;21.20;65.00;;;;;;5062540;28;20198;-43
2023/05/08 06:03:13;;;;;;;3.17;2.80;;;21.20;65.00;;;;;;5048609;28;20240;-42
2023/05/08 06:05:45;;;;;;;3.10;2.80;;;21.20;65.00;;;;;;5070708;28;20198;-42
2023/05/08 06:08:16;;;;;;;2.90;2.60;;;21.20;65.00;;;;;;5069741;28;20259;-42
2023/05/08 06:10:49;;;;;;;2.83;2.57;;;21.20;65.10;;;;;;5056999;28;20217;-42
2023/05/08 06:13:22;;;;;;;3.50;3.20;;;21.20;65.00;;;;;;5074617;28;20623;-43
2023/05/08 06:15:58;;;;;;;3.33;2.77;;;21.20;65.00;;;;;;5070564;28;20205;-42
2023/05/08 06:18:26;;;;;;;3.67;3.17;;;21.20;65.00;;;;;;5057093;28;20205;-42
2023/05/08 06:20:59;;;;;;;3.67;3.13;;;21.20;65.10;;;;;;5050619;28;20202;-42
2023/05/08 06:23:28;;;;;;;3.30;3.00;;;21.20;65.10;;;;;;5032543;28;20241;-42
2023/05/08 06:25:58;;;;;;;3.63;3.17;;;21.20;65.00;;;;;;5067519;28;20213;-43
2023/05/08 06:28:28;;;;;;;3.63;3.20;;;21.20;65.00;;;;;;5075811;28;20201;-43
2023/05/08 06:30:58;;;;;;;3.70;3.40;;;21.30;65.00;;;;;;5068840;28;20201;-43
2023/05/08 06:33:26;;;;;;;3.70;3.40;;;21.30;65.10;;;;;;5070651;28;20201;-45
2023/05/08 06:35:56;;;;;;;4.43;3.33;;;21.30;65.10;;;;;;5070957;28;20645;-45
2023/05/08 06:38:26;;;;;;;3.70;3.37;;;21.20;65.00;;;;;;5072352;28;20189;-45
2023/05/08 06:40:57;;;;;;;5.13;3.13;;;21.20;65.00;;;;;;5070018;28;20197;-44
2023/05/08 06:43:26;;;;;;;6.30;4.30;;;21.20;65.00;;;;;;5056003;28;20790;-43
2023/05/08 06:45:56;;;;;;;5.33;4.03;;;21.30;66.20;;;;;;5059791;28;20190;-43
2023/05/08 06:48:28;;;;;;;13.63;6.47;;;21.30;65.80;;;;;;5072076;28;20198;-43
2023/05/08 06:50:57;;;;;;;10.53;6.80;;;21.40;66.30;;;;;;5068468;28;20190;-43
2023/05/08 06:53:27;;;;;;;8.60;6.00;;;21.40;66.20;;;;;;5054431;28;20646;-43
2023/05/08 06:55:56;;;;;;;9.13;5.20;;;21.50;65.90;;;;;;5062718;28;20950;-43
2023/05/08 06:58:30;;;;;;;8.70;5.80;;;21.60;65.50;;;;;;5035878;28;20245;-44
2023/05/08 07:01:04;;;;;;;15.27;8.10;;;21.70;66.10;;;;;;5067873;28;20205;-43
2023/05/08 07:03:36;;;;;;;16.33;8.43;;;21.80;66.30;;;;;;5070323;28;20202;-44
2023/05/08 07:06:08;;;;;;;15.43;8.90;;;21.80;65.90;;;;;;5070157;28;20213;-43
2023/05/08 07:08:36;;;;;;;14.93;8.40;;;21.90;66.10;;;;;;5029380;28;20212;-44
2023/05/08 07:11:08;;;;;;;19.50;10.33;;;21.90;65.80;;;;;;5048266;28;20587;-44
2023/05/08 07:13:42;;;;;;;12.30;9.63;;;21.80;65.70;;;;;;5068142;28;20189;-44
2023/05/08 07:16:14;;;;;;;14.77;9.33;;;21.90;65.70;;;;;;5064337;28;20603;-43
2023/05/08 07:18:49;;;;;;;11.97;7.40;;;21.80;65.60;;;;;;5052117;28;20201;-43
2023/05/08 07:21:21;;;;;;;14.83;7.37;;;21.80;65.50;;;;;;5073316;28;20309;-43
2023/05/08 07:23:52;;;;;;;12.33;7.77;;;21.80;65.30;;;;;;5063832;28;20233;-44
2023/05/08 07:26:22;;;;;;;17.20;7.50;;;21.80;65.70;;;;;;5064464;28;20198;-43
2023/05/08 07:28:53;;;;;;;10.70;7.53;;;21.80;65.60;;;;;;5069579;28;20198;-43
2023/05/08 07:31:39;;;;;;;15.43;9.90;;;21.80;65.50;;;;;;5053475;28;20202;-43
2023/05/08 07:34:10;;;;;;;15.57;11.37;;;21.80;65.50;;;;;;5044530;28;20195;-44
2023/05/08 07:36:42;;;;;;;16.30;10.43;;;21.80;65.70;;;;;;5072861;28;20196;-44
2023/05/08 07:39:10;;;;;;;17.13;11.07;;;21.80;65.70;;;;;;5035117;28;20255;-44
2023/05/08 07:41:42;;;;;;;15.17;9.60;;;21.80;65.70;;;;;;5069258;28;20193;-43
2023/05/08 07:44:16;;;;;;;13.83;8.83;;;21.80;65.60;;;;;;5066881;28;20221;-43
2023/05/08 07:46:47;;;;;;;16.83;8.50;;;21.80;65.50;;;;;;5053933;28;20209;-43
2023/05/08 07:49:20;;;;;;;14.87;9.07;;;21.80;65.50;;;;;;5066668;28;20191;-43
2023/05/08 07:51:50;;;;;;;10.40;8.03;;;21.80;65.50;;;;;;5059901;28;20877;-43
2023/05/08 07:54:19;;;;;;;14.27;7.67;;;21.80;65.50;;;;;;5057629;28;20513;-43
2023/05/08 07:56:46;;;;;;;9.50;7.63;;;21.80;65.50;;;;;;5067806;28;20234;-43
2023/05/08 07:59:29;;;;;;;12.80;7.43;;;21.80;65.50;;;;;;5064806;28;20235;-43
2023/05/08 08:01:57;;;;;;;10.70;7.43;;;21.80;65.50;;;;;;5066407;28;20207;-42
2023/05/08 08:04:28;;;;;;;8.27;7.07;;;21.80;65.50;;;;;;5068522;28;20225;-45
2023/05/08 08:07:00;;;;;;;9.90;7.93;;;21.80;65.60;;;;;;5068550;28;20197;-44
2023/05/08 08:09:46;;;;;;;11.20;7.40;;;21.80;65.60;;;;;;5064035;28;20221;-44
2023/05/08 08:12:15;;;;;;;12.70;8.20;;;21.80;65.60;;;;;;5066828;28;20205;-45
2023/05/08 08:14:47;;;;;;;10.47;7.53;;;21.80;65.60;;;;;;5051958;28;20262;-45
2023/05/08 08:17:17;;;;;;;9.40;7.37;;;21.80;65.80;;;;;;5070907;28;20193;-44
2023/05/08 08:19:56;;;;;;;10.00;7.90;;;21.80;66.40;;;;;;5069461;28;20197;-45
2023/05/08 08:22:25;;;;;;;9.77;8.13;;;21.80;65.70;;;;;;5038432;28;20636;-45
2023/05/08 08:24:56;;;;;;;9.77;7.97;;;21.80;65.70;;;;;;5030865;28;20198;-45
2023/05/08 08:27:29;;;;;;;9.27;7.97;;;21.80;65.70;;;;;;5049408;28;20285;-44
2023/05/08 08:30:00;;;;;;;10.67;8.00;;;21.90;65.70;;;;;;5068736;28;20240;-44
2023/05/08 08:32:45;;;;;;;9.47;7.97;;;21.90;65.80;;;;;;5060278;28;20209;-44
2023/05/08 08:35:15;;;;;;;8.93;8.00;;;21.90;65.70;;;;;;5056806;28;20213;-43
2023/05/08 08:37:45;;;;;;;10.27;7.77;;;21.90;65.70;;;;;;5067500;28;20286;-45
2023/05/08 08:40:15;;;;;;;8.87;7.27;;;21.90;65.70;;;;;;5055927;28;20552;-43
2023/05/08 08:42:50;;;;;;;8.20;7.40;;;21.90;65.50;;;;;;5069595;28;20233;-43
2023/05/08 08:45:22;;;;;;;11.50;8.33;;;21.90;65.50;;;;;;5035806;28;20197;-43
2023/05/08 08:47:53;;;;;;;9.03;7.47;;;21.90;65.50;;;;;;5065871;28;20201;-43
2023/05/08 08:50:26;;;;;;;12.00;7.87;;;21.90;65.50;;;;;;5057530;28;20267;-44
2023/05/08 08:53:14;;;;;;;9.93;7.40;;;21.90;65.50;;;;;;5070186;28;20205;-44
2023/05/08 08:55:45;;;;;;;8.53;7.47;;;22.00;65.50;;;;;;5041880;28;20399;-44
2023/05/08 08:59:03;;;;;;;8.63;7.83;;;21.90;65.60;;;;;;5045481;28;20309;-44
2023/05/08 09:01:50;;;;;;;7.90;7.10;;;21.90;65.60;;;;;;5015325;28;20206;-44
2023/05/08 09:04:32;;;;;;;8.77;7.60;;;21.90;65.70;;;;;;5068510;28;20234;-45
2023/05/08 09:07:04;;;;;;;10.20;7.53;;;21.90;65.50;;;;;;5053583;28;20209;-44
2023/05/08 09:09:39;;;;;;;10.70;7.67;;;22.00;65.60;;;;;;5053716;28;20612;-44
2023/05/08 09:12:12;;;;;;;8.97;7.60;;;22.00;65.60;;;;;;5042680;28;20210;-43
2023/05/08 09:14:46;;;;;;;8.40;7.60;;;21.90;65.60;;;;;;5029854;28;20596;-44
2023/05/08 09:17:15;;;;;;;8.93;8.03;;;21.90;65.70;;;;;;5050672;28;20532;-44
2023/05/08 09:19:48;;;;;;;9.93;8.00;;;21.90;65.80;;;;;;5049700;28;20214;-45
2023/05/08 09:22:20;;;;;;;8.57;7.50;;;22.00;66.00;;;;;;5041056;28;20206;-45
2023/05/08 09:24:58;;;;;;;8.70;7.70;;;22.00;66.00;;;;;;5051300;28;20191;-44
2023/05/08 09:27:29;;;;;;;8.03;7.23;;;22.00;66.20;;;;;;5054161;28;20190;-44
2023/05/08 09:30:15;;;;;;;8.47;7.33;;;22.00;66.10;;;;;;5031473;28;20199;-44
2023/05/08 09:32:46;;;;;;;9.33;7.63;;;22.00;66.30;;;;;;5049934;28;20224;-44
2023/05/08 09:35:18;;;;;;;9.13;7.43;;;22.00;66.00;;;;;;5047529;28;20210;-42
2023/05/08 09:37:48;;;;;;;7.97;7.17;;;22.00;66.50;;;;;;5046162;28;20608;-43
2023/05/08 09:40:22;;;;;;;9.33;7.17;;;22.00;66.30;;;;;;5046962;28;20898;-44
2023/05/08 09:42:53;;;;;;;8.73;7.93;;;22.00;66.40;;;;;;5046737;28;20210;-44
2023/05/08 09:45:34;;;;;;;10.60;8.23;;;22.10;66.90;;;;;;5046073;28;20241;-44
2023/05/08 09:48:02;;;;;;;8.70;7.83;;;22.10;67.50;;;;;;5038729;28;20230;-43
2023/05/08 09:50:34;;;;;;;9.40;7.83;;;22.10;67.60;;;;;;5030266;28;20217;-43
2023/05/08 09:53:04;;;;;;;8.80;7.90;;;22.10;68.10;;;;;;5055492;28;20634;-43
2023/05/08 09:55:53;;;;;;;8.70;7.80;;;22.20;68.80;;;;;;5052615;28;20241;-43
2023/05/08 09:58:23;;;;;;;11.13;7.57;;;22.20;68.30;;;;;;5060565;28;20234;-43
2023/05/08 10:01:00;;;;;;;9.80;7.90;;;22.20;68.90;;;;;;5060369;28;20204;-43
2023/05/08 10:03:50;;;;;;;8.93;7.70;;;22.30;69.30;;;;;;5063236;28;20241;-43
2023/05/08 10:06:21;;;;;;;9.40;7.23;;;22.30;69.40;;;;;;5051091;28;20186;-43
2023/05/08 10:09:11;;;;;;;9.83;7.40;;;22.30;69.20;;;;;;5063786;28;20187;-43
2023/05/08 10:11:51;;;;;;;11.20;7.70;;;22.30;69.70;;;;;;5060909;28;20219;-43
2023/05/08 10:14:26;;;;;;;11.53;7.40;;;22.40;69.70;;;;;;5067072;28;20198;-44
2023/05/08 10:17:06;;;;;;;13.80;8.17;;;22.40;69.40;;;;;;5065479;28;20221;-44
2023/05/08 10:19:40;;;;;;;15.80;8.20;;;22.40;69.80;;;;;;5061971;28;20205;-44
2023/05/08 10:22:21;;;;;;;16.03;8.00;;;22.40;69.90;;;;;;5064414;28;20216;-43
2023/05/08 10:24:59;;;;;;;16.13;7.90;;;22.50;70.10;;;;;;5065850;28;20353;-43
2023/05/08 10:28:15;;;;;;;20.13;9.13;;;22.50;69.80;;;;;;5067284;28;20609;-43
2023/05/08 10:30:50;;;;;;;22.17;9.63;;;22.50;70.20;;;;;;5061917;28;20198;-43
2023/05/08 10:33:28;;;;;;;18.13;8.47;;;22.50;70.10;;;;;;5048127;28;20209;-43
2023/05/08 10:35:59;;;;;;;22.47;10.43;;;22.50;69.70;;;;;;5044832;28;20262;-43
2023/05/08 10:38:34;;;;;;;19.90;9.00;;;22.50;70.20;;;;;;5060714;28;20263;-43
2023/05/08 10:41:09;;;;;;;15.87;9.80;;;22.50;69.60;;;;;;5049526;28;20205;-43
2023/05/08 10:43:42;;;;;;;25.30;10.73;;;22.50;69.80;;;;;;5048377;28;20225;-43
2023/05/08 10:46:26;;;;;;;22.63;10.23;;;22.60;69.90;;;;;;5061052;28;20249;-44
2023/05/08 10:49:28;;;;;;;24.73;11.00;;;22.60;69.20;;;;;;5062791;28;20266;-43
2023/05/08 10:52:12;;;;;;;29.40;12.80;;;22.60;69.40;;;;;;5057115;28;20262;-44
2023/05/08 10:55:08;;;;;;;24.73;10.60;;;22.60;70.00;;;;;;5068459;28;20197;-44
2023/05/08 10:57:35;;;;;;;21.73;11.50;;;22.60;69.60;;;;;;5065203;28;20277;-44
2023/05/08 11:00:03;;;;;;;29.93;12.40;;;22.60;69.40;;;;;;5059648;28;20250;-44
2023/05/08 11:02:37;;;;;;;19.17;10.53;;;22.60;69.90;;;;;;5066024;28;20199;-43
2023/05/08 11:05:17;;;;;;;21.17;10.83;;;22.70;69.40;;;;;;5064898;28;20251;-43
2023/05/08 11:08:00;;;;;;;24.83;12.27;;;22.70;69.10;;;;;;5062675;28;20201;-43
2023/05/08 11:10:32;;;;;;;30.67;12.17;;;22.70;69.60;;;;;;5064155;28;20212;-43
2023/05/08 11:13:04;;;;;;;23.00;10.40;;;22.70;69.20;;;;;;5051588;28;20196;-43
2023/05/08 11:15:39;;;;;;;24.27;10.63;;;22.70;69.20;;;;;;5051284;28;20251;-43
2023/05/08 11:18:15;;;;;;;26.13;11.00;;;22.70;69.50;;;;;;5060783;28;20376;-43
2023/05/08 11:21:03;;;;;;;25.30;11.10;;;22.80;68.80;;;;;;5068985;28;20190;-42
2023/05/08 11:23:35;;;;;;;20.87;10.07;;;22.80;69.20;;;;;;5065886;28;20682;-45
2023/05/08 11:26:16;;;;;;;19.07;10.00;;;22.80;69.40;;;;;;5042333;28;20202;-44
2023/05/08 11:28:56;;;;;;;24.10;10.47;;;22.80;68.00;;;;;;5068503;28;20194;-45
2023/05/08 11:31:23;;;;;;;21.93;10.27;;;22.80;68.70;;;;;;5051573;28;20255;-43
2023/05/08 11:33:53;;;;;;;20.60;9.37;;;22.80;69.10;;;;;;5049411;28;20262;-43
2023/05/08 11:36:27;;;;;;;25.03;10.03;;;22.80;69.30;;;;;;5068113;28;20206;-44
2023/05/08 11:39:17;;;;;;;31.30;9.73;;;22.80;69.60;;;;;;5065209;28;20217;-44
2023/05/08 11:41:52;;;;;;;25.30;9.83;;;22.90;69.20;;;;;;5047746;28;20190;-44
2023/05/08 11:44:26;;;;;;;25.73;9.97;;;22.90;69.10;;;;;;5067662;28;20201;-43
2023/05/08 11:47:05;;;;;;;23.23;9.80;;;22.90;68.40;;;;;;5051574;28;20225;-44
2023/05/08 11:49:36;;;;;;;25.37;11.10;;;22.90;68.00;;;;;;5063738;28;20209;-44
2023/05/08 11:52:09;;;;;;;24.43;10.03;;;22.90;69.10;;;;;;5067547;28;20197;-44
2023/05/08 11:54:40;;;;;;;18.60;9.77;;;22.90;68.90;;;;;;5069267;28;20216;-44
2023/05/08 11:57:11;;;;;;;21.10;10.10;;;22.90;68.90;;;;;;5050864;28;20201;-43
2023/05/08 11:59:50;;;;;;;15.67;9.50;;;22.90;69.00;;;;;;5067312;28;20221;-43
2023/05/08 12:02:39;;;;;;;18.33;9.90;;;22.90;68.80;;;;;;5052894;28;20190;-44
2023/05/08 12:05:11;;;;;;;23.17;9.50;;;22.90;68.60;;;;;;5068966;28;20209;-45
2023/05/08 12:07:47;;;;;;;21.93;9.73;;;22.90;69.20;;;;;;5066364;28;20212;-45
2023/05/08 12:10:32;;;;;;;18.53;9.33;;;23.00;69.30;;;;;;5061187;28;20241;-43
2023/05/08 12:13:18;;;;;;;20.23;9.37;;;22.90;69.90;;;;;;5057997;28;20206;-43
2023/05/08 12:15:58;;;;;;;12.23;8.83;;;22.90;69.80;;;;;;5067131;28;20201;-43
2023/05/08 12:18:42;;;;;;;15.77;9.00;;;22.90;69.80;;;;;;5053319;28;20201;-44
2023/05/08 12:21:12;;;;;;;17.13;9.87;;;23.00;69.60;;;;;;5067863;28;20197;-43
2023/05/08 12:23:42;;;;;;;19.57;9.70;;;23.00;69.80;;;;;;5066037;28;20229;-44
2023/05/08 12:26:11;;;;;;;19.10;8.63;;;22.90;69.80;;;;;;5048163;28;20202;-44
2023/05/08 12:28:55;;;;;;;14.40;8.93;;;22.90;69.70;;;;;;5072686;28;20515;-44
2023/05/08 12:31:26;;;;;;;18.57;9.60;;;23.00;70.30;;;;;;5068718;28;20593;-44
2023/05/08 12:33:57;;;;;;;12.00;9.50;;;23.00;70.70;;;;;;5062527;28;20194;-44
2023/05/08 12:36:26;;;;;;;13.93;9.03;;;23.00;70.50;;;;;;5032710;28;20847;-44
2023/05/08 12:39:17;;;;;;;13.87;9.73;;;23.00;70.50;;;;;;5069963;28;20190;-44
2023/05/08 12:41:53;;;;;;;13.73;9.47;;;23.00;70.30;;;;;;5062943;28;20540;-44
2023/05/08 12:44:31;;;;;;;14.43;8.93;;;23.00;70.40;;;;;;5062313;28;20606;-44
2023/05/08 12:47:00;;;;;;;11.97;9.27;;;22.90;70.30;;;;;;5054171;28;20217;-44
2023/05/08 12:49:30;;;;;;;14.30;9.33;;;23.00;70.40;;;;;;5068228;28;20204;-44
2023/05/08 12:52:13;;;;;;;13.13;9.07;;;23.00;70.50;;;;;;5048447;28;20198;-43
2023/05/08 12:54:50;;;;;;;10.50;8.60;;;23.00;70.40;;;;;;5067883;28;20189;-43
2023/05/08 12:57:18;;;;;;;14.47;9.07;;;23.00;70.30;;;;;;5055062;28;20193;-44
2023/05/08 12:59:49;;;;;;;11.67;8.97;;;23.00;70.30;;;;;;5052544;28;20675;-44
2023/05/08 13:02:22;;;;;;;11.70;8.77;;;23.00;70.50;;;;;;5069870;28;20229;-45
2023/05/08 13:04:55;;;;;;;12.17;7.77;;;23.00;70.30;;;;;;5072556;28;20209;-45
2023/05/08 13:07:22;;;;;;;12.50;8.33;;;23.00;70.00;;;;;;5071640;28;20276;-45
2023/05/08 13:10:03;;;;;;;10.83;9.27;;;23.10;69.90;;;;;;5045943;28;20241;-43
2023/05/08 13:12:34;;;;;;;10.97;8.70;;;23.00;69.60;;;;;;5086173;28;20206;-43
2023/05/08 13:15:05;;;;;;;10.50;9.40;;;23.10;69.90;;;;;;5071746;28;20622;-43
2023/05/08 13:17:34;;;;;;;11.30;9.13;;;23.10;69.90;;;;;;5070053;28;20330;-44
2023/05/08 13:20:04;;;;;;;11.07;9.87;;;23.10;69.60;;;;;;5061357;28;20216;-45
2023/05/08 13:22:35;;;;;;;11.10;9.63;;;23.10;69.80;;;;;;5050879;28;20248;-44
2023/05/08 13:25:07;;;;;;;11.10;9.03;;;23.10;69.70;;;;;;5052214;28;20237;-43
2023/05/08 13:27:39;;;;;;;10.57;9.17;;;23.10;69.40;;;;;;5070098;28;20222;-44
2023/05/08 13:30:12;;;;;;;10.03;9.03;;;23.10;69.70;;;;;;5066363;28;20212;-44